Time;durP1;ratioP1;P1;durP2;ratioP2;P2;SDS_P1;SDS_P2;PMS_P1;PMS_P2;Temp;Humidity;BMP_temperature;BMP_pressure;BME280_temperature;BME280_humidity;BME280_pressure;Samples;Min_cycle;Max_cycle;Signal;HPM_P1;HPM_P2
2023/10/16 00:01:38;;;;;;;5.03;1.00;;;;;;;;;;5021538;28;20032;-66
2023/10/16 00:04:06;;;;;;;4.80;0.95;;;;;;;;;;5020341;28;20431;-66
2023/10/16 00:06:33;;;;;;;3.80;0.70;;;;;;;;;;5020447;28;20123;-66
2023/10/16 00:09:14;;;;;;;4.85;0.47;;;;;;;;;;5021294;28;20040;-66
2023/10/16 00:11:41;;;;;;;5.68;1.10;;;;;;;;;;5021021;28;20039;-66
2023/10/16 00:14:19;;;;;;;4.68;0.77;;;;;;;;;;5021272;28;20384;-66
2023/10/16 00:16:45;;;;;;;3.97;0.70;;;;;;;;;;5005369;28;20039;-66
2023/10/16 00:19:12;;;;;;;4.18;0.82;;;;;;;;;;5021213;28;20116;-66
2023/10/16 00:21:45;;;;;;;5.40;1.05;;;;;;;;;;5020805;28;20040;-66
2023/10/16 00:24:15;;;;;;;5.38;1.02;;;;;;;;;;5020235;28;20029;-66
2023/10/16 00:26:48;;;;;;;4.63;0.80;;;;;;;;;;5021222;28;20787;-66
2023/10/16 00:29:19;;;;;;;4.75;0.75;;;;;;;;;;5021672;28;20081;-66
2023/10/16 00:31:46;;;;;;;1.63;0.40;;;;;;;;;;5020827;28;20835;-66
2023/10/16 00:34:19;;;;;;;6.10;1.42;;;;;;;;;;5021011;28;20125;-66
2023/10/16 00:36:46;;;;;;;3.42;0.80;;;;;;;;;;5021359;28;20037;-66
2023/10/16 00:39:20;;;;;;;3.33;0.50;;;;;;;;;;5019836;28;20040;-66
2023/10/16 00:41:57;;;;;;;2.70;0.70;;;;;;;;;;5020333;28;20036;-66
2023/10/16 00:44:24;;;;;;;8.18;1.67;;;;;;;;;;5020605;28;20629;-66
2023/10/16 00:46:50;;;;;;;2.25;0.70;;;;;;;;;;5020242;28;20061;-66
2023/10/16 00:49:18;;;;;;;3.30;0.73;;;;;;;;;;5020430;28;20099;-66
2023/10/16 00:51:45;;;;;;;2.80;0.70;;;;;;;;;;5020732;28;20396;-66
2023/10/16 00:54:18;;;;;;;6.05;0.80;;;;;;;;;;5020951;28;20040;-66
2023/10/16 00:56:51;;;;;;;3.35;0.60;;;;;;;;;;5021171;28;20021;-66
2023/10/16 00:59:17;;;;;;;3.80;0.65;;;;;;;;;;5020235;28;20903;-66
2023/10/16 01:01:47;;;;;;;1.70;0.60;;;;;;;;;;5011560;28;20030;-66
2023/10/16 01:04:15;;;;;;;2.85;0.65;;;;;;;;;;5020821;28;20120;-66
2023/10/16 01:06:44;;;;;;;1.80;0.50;;;;;;;;;;5021266;28;20045;-66
2023/10/16 01:09:13;;;;;;;2.80;0.57;;;;;;;;;;5023754;28;20150;-66
2023/10/16 01:11:39;;;;;;;2.90;0.60;;;;;;;;;;5023713;28;20057;-66
2023/10/16 01:14:06;;;;;;;1.73;0.47;;;;;;;;;;5024148;28;20037;-66
2023/10/16 01:16:32;;;;;;;8.10;0.98;;;;;;;;;;5022465;28;20040;-66
2023/10/16 01:19:00;;;;;;;3.58;0.68;;;;;;;;;;5022773;28;20052;-66
2023/10/16 01:21:27;;;;;;;1.77;0.30;;;;;;;;;;5023852;28;20068;-66
2023/10/16 01:23:55;;;;;;;4.22;0.77;;;;;;;;;;5023391;28;20108;-66
2023/10/16 01:26:24;;;;;;;1.50;0.55;;;;;;;;;;5023066;28;20029;-66
2023/10/16 01:28:50;;;;;;;2.53;0.60;;;;;;;;;;5023459;28;20029;-66
2023/10/16 01:31:16;;;;;;;3.50;0.82;;;;;;;;;;5023473;28;20038;-66
2023/10/16 01:33:44;;;;;;;3.40;0.60;;;;;;;;;;4996824;28;20033;-66
2023/10/16 01:36:10;;;;;;;3.85;0.65;;;;;;;;;;5007822;28;20033;-66
2023/10/16 01:38:36;;;;;;;1.90;0.60;;;;;;;;;;5023445;28;20087;-66
2023/10/16 01:41:13;;;;;;;3.95;0.93;;;;;;;;;;5023549;28;20052;-66
2023/10/16 01:43:40;;;;;;;4.78;1.42;;;;;;;;;;5023603;28;20025;-66
2023/10/16 01:46:10;;;;;;;1.35;0.55;;;;;;;;;;5023936;28;20042;-66
2023/10/16 01:48:38;;;;;;;7.10;0.90;;;;;;;;;;5023056;28;20040;-66
2023/10/16 01:51:05;;;;;;;5.07;0.85;;;;;;;;;;5023655;28;20034;-66
2023/10/16 01:53:36;;;;;;;2.65;0.70;;;;;;;;;;5023665;28;20025;-66
2023/10/16 01:56:15;;;;;;;4.95;0.60;;;;;;;;;;5023268;28;20559;-66
2023/10/16 01:58:42;;;;;;;4.32;0.85;;;;;;;;;;5023913;28;20048;-66
2023/10/16 02:01:11;;;;;;;5.68;0.80;;;;;;;;;;5023187;28;20022;-66
2023/10/16 02:03:38;;;;;;;2.95;0.60;;;;;;;;;;5023424;28;20108;-66
2023/10/16 02:06:05;;;;;;;5.70;0.82;;;;;;;;;;5023123;28;20033;-66
2023/10/16 02:08:31;;;;;;;2.60;0.68;;;;;;;;;;5022772;28;20488;-66
2023/10/16 02:10:57;;;;;;;3.22;0.85;;;;;;;;;;5023401;28;20048;-66
2023/10/16 02:13:23;;;;;;;1.95;0.60;;;;;;;;;;5023822;28;20029;-66
2023/10/16 02:15:49;;;;;;;1.73;0.65;;;;;;;;;;5022770;28;20627;-66
2023/10/16 02:18:27;;;;;;;4.22;0.63;;;;;;;;;;5023132;28;20038;-66
2023/10/16 02:20:53;;;;;;;4.10;0.60;;;;;;;;;;5023201;28;20842;-66
2023/10/16 02:23:19;;;;;;;5.88;0.63;;;;;;;;;;5022770;28;20029;-66
2023/10/16 02:25:46;;;;;;;5.75;0.60;;;;;;;;;;5023088;28;20037;-66
2023/10/16 02:28:19;;;;;;;5.43;0.75;;;;;;;;;;5023349;28;20044;-66
2023/10/16 02:30:49;;;;;;;4.53;0.70;;;;;;;;;;5022574;28;20033;-66
2023/10/16 02:33:36;;;;;;;5.43;0.85;;;;;;;;;;5022816;28;20044;-66
2023/10/16 02:36:02;;;;;;;6.38;0.95;;;;;;;;;;5022310;28;20104;-66
2023/10/16 02:38:28;;;;;;;7.38;0.70;;;;;;;;;;5022664;28;20036;-66
2023/10/16 02:41:03;;;;;;;1.55;0.50;;;;;;;;;;5022276;28;20039;-66
2023/10/16 02:43:29;;;;;;;5.13;0.73;;;;;;;;;;5022249;28;21018;-66
2023/10/16 02:45:56;;;;;;;3.20;0.77;;;;;;;;;;5022711;28;20037;-66
2023/10/16 02:48:22;;;;;;;1.17;0.40;;;;;;;;;;5022806;28;20060;-66
2023/10/16 02:50:59;;;;;;;2.83;0.60;;;;;;;;;;5022243;28;20036;-66
2023/10/16 02:53:25;;;;;;;7.45;0.80;;;;;;;;;;5022789;28;20321;-66
2023/10/16 02:55:58;;;;;;;4.55;1.10;;;;;;;;;;5023276;28;20033;-66
2023/10/16 02:58:28;;;;;;;4.43;0.70;;;;;;;;;;5022588;28;20045;-66
2023/10/16 03:00:59;;;;;;;3.15;0.60;;;;;;;;;;5021560;28;20039;-66
2023/10/16 03:03:26;;;;;;;3.25;0.70;;;;;;;;;;5022767;28;20022;-66
2023/10/16 03:05:56;;;;;;;3.75;1.20;;;;;;;;;;5021463;28;20025;-66
2023/10/16 03:08:29;;;;;;;3.75;1.05;;;;;;;;;;5021569;28;20033;-66
2023/10/16 03:10:55;;;;;;;3.97;0.90;;;;;;;;;;5022076;28;20175;-65
2023/10/16 03:13:21;;;;;;;2.80;0.70;;;;;;;;;;5021417;28;20033;-66
2023/10/16 03:15:47;;;;;;;5.97;0.70;;;;;;;;;;5021441;28;20025;-66
2023/10/16 03:18:17;;;;;;;7.13;0.85;;;;;;;;;;5021199;28;20060;-66
2023/10/16 03:20:47;;;;;;;8.32;1.13;;;;;;;;;;5021567;28;20045;-66
2023/10/16 03:23:18;;;;;;;5.82;0.85;;;;;;;;;;5008116;28;20025;-66
2023/10/16 03:28:11;;;;;;;7.63;1.00;;;;;;;;;;5021155;28;20075;-66
2023/10/16 03:30:39;;;;;;;6.63;1.40;;;;;;;;;;5021949;28;20052;-66
2023/10/16 03:33:05;;;;;;;7.00;0.70;;;;;;;;;;5020695;28;20033;-66
2023/10/16 03:35:32;;;;;;;6.45;1.05;;;;;;;;;;5021997;28;20025;-66
2023/10/16 03:38:11;;;;;;;4.70;0.95;;;;;;;;;;5021215;28;20037;-66
2023/10/16 03:40:37;;;;;;;3.38;0.55;;;;;;;;;;5021187;28;20030;-66
2023/10/16 03:43:03;;;;;;;3.58;0.80;;;;;;;;;;5020817;28;20412;-66
2023/10/16 03:45:31;;;;;;;3.95;0.60;;;;;;;;;;5018746;28;20025;-66
2023/10/16 03:47:57;;;;;;;9.30;0.88;;;;;;;;;;5019854;28;20393;-66
2023/10/16 03:50:38;;;;;;;3.92;0.82;;;;;;;;;;5021122;28;20037;-66
2023/10/16 03:53:07;;;;;;;6.20;0.93;;;;;;;;;;5020938;28;20653;-66
2023/10/16 03:55:48;;;;;;;4.85;0.60;;;;;;;;;;5020575;28;20032;-66
2023/10/16 03:58:14;;;;;;;3.08;0.75;;;;;;;;;;5021455;28;20040;-66
2023/10/16 04:00:53;;;;;;;2.58;0.77;;;;;;;;;;5021289;28;20029;-66
2023/10/16 04:03:23;;;;;;;11.43;1.00;;;;;;;;;;5021248;28;20025;-66
2023/10/16 04:05:49;;;;;;;4.88;0.85;;;;;;;;;;5021384;28;20112;-66
2023/10/16 04:08:16;;;;;;;7.43;1.00;;;;;;;;;;5021628;28;20029;-66
2023/10/16 04:10:47;;;;;;;3.25;0.60;;;;;;;;;;5021070;28;20043;-66
2023/10/16 04:13:17;;;;;;;4.10;1.08;;;;;;;;;;5021512;28;20402;-66
2023/10/16 04:18:27;;;;;;;4.97;0.93;;;;;;;;;;5021260;28;20037;-66
2023/10/16 04:32:20;;;;;;;7.47;1.05;;;;;;;;;;5020476;28;20041;-66
2023/10/16 04:36:52;;;;;;;3.63;0.80;;;;;;;;;;5020631;28;20045;-66
2023/10/16 04:47:46;;;;;;;4.85;0.80;;;;;;;;;;5020773;28;20030;-66
2023/10/16 04:50:14;;;;;;;3.47;0.68;;;;;;;;;;5020659;28;20038;-66
2023/10/16 05:03:35;;;;;;;6.75;1.30;;;;;;;;;;5020609;28;20512;-66
2023/10/16 05:06:05;;;;;;;4.38;0.70;;;;;;;;;;5005400;28;20114;-66
2023/10/16 05:16:47;;;;;;;2.90;1.10;;;;;;;;;;5020233;28;20141;-66
2023/10/16 05:19:53;;;;;;;10.98;1.55;;;;;;;;;;5020790;28;20033;-66
2023/10/16 06:14:17;;;;;;;5.18;1.05;;;;;;;;;;5022059;28;20048;-66
2023/10/16 06:16:47;;;;;;;4.53;1.20;;;;;;;;;;5022536;28;20081;-66
2023/10/16 06:19:18;;;;;;;5.20;1.00;;;;;;;;;;5021510;28;20517;-66
2023/10/16 06:21:47;;;;;;;4.07;0.90;;;;;;;;;;5022637;28;20045;-66
2023/10/16 06:24:28;;;;;;;3.53;0.80;;;;;;;;;;5022826;28;20029;-66
2023/10/16 06:26:54;;;;;;;5.20;0.70;;;;;;;;;;5022757;28;20029;-66
2023/10/16 06:29:24;;;;;;;3.22;0.90;;;;;;;;;;5022591;28;20037;-66
2023/10/16 06:31:53;;;;;;;4.43;0.85;;;;;;;;;;5023120;28;20045;-66
2023/10/16 06:34:19;;;;;;;3.90;1.20;;;;;;;;;;5022661;28;20042;-67
2023/10/16 06:36:45;;;;;;;2.60;0.85;;;;;;;;;;5023316;28;20030;-66
2023/10/16 06:39:22;;;;;;;6.00;0.80;;;;;;;;;;5023195;28;20037;-66
2023/10/16 06:41:54;;;;;;;6.07;1.35;;;;;;;;;;5022949;28;20057;-67
2023/10/16 06:44:27;;;;;;;5.30;1.45;;;;;;;;;;5023027;28;20029;-67
2023/10/16 06:46:58;;;;;;;4.25;0.88;;;;;;;;;;5023100;28;20041;-66
2023/10/16 06:49:26;;;;;;;10.45;1.33;;;;;;;;;;5022801;28;20033;-66
2023/10/16 06:51:53;;;;;;;6.10;1.27;;;;;;;;;;5022894;28;20034;-66
2023/10/16 06:54:19;;;;;;;7.38;1.25;;;;;;;;;;5022904;28;21001;-66
2023/10/16 06:56:45;;;;;;;3.17;1.02;;;;;;;;;;5022511;28;20558;-66
2023/10/16 06:59:16;;;;;;;5.28;1.00;;;;;;;;;;5022428;28;20037;-67
2023/10/16 07:01:46;;;;;;;6.32;0.93;;;;;;;;;;5022993;28;20535;-66
2023/10/16 07:04:13;;;;;;;9.13;1.30;;;;;;;;;;5021459;28;20882;-66
2023/10/16 07:06:39;;;;;;;5.13;0.98;;;;;;;;;;5022228;28;20114;-66
2023/10/16 07:09:05;;;;;;;5.20;1.33;;;;;;;;;;5022010;28;20037;-66
2023/10/16 07:11:31;;;;;;;4.38;1.35;;;;;;;;;;5022794;28;20059;-66
2023/10/16 07:13:58;;;;;;;6.55;1.13;;;;;;;;;;5022549;28;20079;-66
2023/10/16 07:16:25;;;;;;;5.18;1.40;;;;;;;;;;5021928;28;20765;-66
2023/10/16 07:18:54;;;;;;;9.93;1.45;;;;;;;;;;5022375;28;20122;-66
2023/10/16 07:21:22;;;;;;;9.25;1.90;;;;;;;;;;5022330;28;20040;-66
2023/10/16 07:23:49;;;;;;;5.70;1.80;;;;;;;;;;5022323;28;20024;-66
2023/10/16 07:26:19;;;;;;;8.20;2.03;;;;;;;;;;5022020;28;20028;-66
2023/10/16 07:28:51;;;;;;;5.50;1.60;;;;;;;;;;5021922;28;20072;-66
2023/10/16 07:31:18;;;;;;;5.25;1.20;;;;;;;;;;5021946;28;20040;-66
2023/10/16 07:33:50;;;;;;;4.30;1.45;;;;;;;;;;5022126;28;20044;-66
2023/10/16 07:36:17;;;;;;;7.00;1.65;;;;;;;;;;5003059;28;20034;-66
2023/10/16 07:38:44;;;;;;;7.50;1.63;;;;;;;;;;5021391;28;20017;-66
2023/10/16 07:41:18;;;;;;;7.47;1.60;;;;;;;;;;5021669;28;20021;-66
2023/10/16 07:43:46;;;;;;;4.40;1.63;;;;;;;;;;5021922;28;20641;-66
2023/10/16 07:48:42;;;;;;;5.18;1.50;;;;;;;;;;5021432;28;20539;-66
2023/10/16 07:51:12;;;;;;;6.43;1.75;;;;;;;;;;5022009;28;20025;-66
2023/10/16 07:53:38;;;;;;;6.88;1.65;;;;;;;;;;5021332;28;20032;-66
2023/10/16 07:56:19;;;;;;;8.20;1.98;;;;;;;;;;5021565;28;20171;-66
2023/10/16 07:58:48;;;;;;;10.30;1.52;;;;;;;;;;5022046;28;20068;-66
2023/10/16 08:03:45;;;;;;;4.05;1.33;;;;;;;;;;5021309;28;20088;-66
2023/10/16 08:06:17;;;;;;;7.07;1.05;;;;;;;;;;5021346;28;20029;-66
2023/10/16 08:08:48;;;;;;;5.10;1.15;;;;;;;;;;5020613;28;20043;-66
2023/10/16 08:11:18;;;;;;;7.22;0.93;;;;;;;;;;5003641;28;20029;-66
2023/10/16 08:13:46;;;;;;;4.72;1.33;;;;;;;;;;5021165;28;20041;-66
2023/10/16 08:16:21;;;;;;;4.57;1.08;;;;;;;;;;5019871;28;20049;-67
2023/10/16 08:18:48;;;;;;;4.35;1.10;;;;;;;;;;5020001;28;20037;-67
2023/10/16 08:21:26;;;;;;;10.45;1.67;;;;;;;;;;5019863;28;20231;-66
2023/10/16 08:23:53;;;;;;;8.73;1.50;;;;;;;;;;5020155;28;20028;-67
2023/10/16 08:26:28;;;;;;;8.85;1.38;;;;;;;;;;5020109;28;20403;-66
2023/10/16 08:29:11;;;;;;;5.90;1.30;;;;;;;;;;5020473;28;20040;-67
2023/10/16 08:31:41;;;;;;;8.50;1.52;;;;;;;;;;5006498;28;20029;-66
2023/10/16 08:34:07;;;;;;;6.65;1.65;;;;;;;;;;5020738;28;20470;-66
2023/10/16 08:36:33;;;;;;;9.95;1.33;;;;;;;;;;5021255;28;20624;-67
2023/10/16 08:39:08;;;;;;;8.70;1.50;;;;;;;;;;5019804;28;20041;-66
2023/10/16 08:41:45;;;;;;;8.48;1.13;;;;;;;;;;5011569;28;20128;-67
2023/10/16 08:44:15;;;;;;;6.82;1.20;;;;;;;;;;5020343;28;20067;-66
2023/10/16 08:46:44;;;;;;;9.35;1.88;;;;;;;;;;5021119;28;20785;-66
2023/10/16 08:49:10;;;;;;;6.15;1.40;;;;;;;;;;5020804;28;20033;-66
2023/10/16 08:51:37;;;;;;;6.22;1.30;;;;;;;;;;5021194;28;20150;-66
2023/10/16 08:54:26;;;;;;;6.53;1.40;;;;;;;;;;5020991;28;20040;-66
2023/10/16 08:56:53;;;;;;;7.38;1.40;;;;;;;;;;5020657;28;20041;-66
2023/10/16 08:59:21;;;;;;;5.65;1.30;;;;;;;;;;5020525;28;20091;-66
2023/10/16 09:01:48;;;;;;;10.30;1.73;;;;;;;;;;5020573;28;20118;-66
2023/10/16 09:04:15;;;;;;;10.98;1.50;;;;;;;;;;5020390;28;20018;-67
2023/10/16 09:06:41;;;;;;;3.75;1.00;;;;;;;;;;5020951;28;20036;-66
2023/10/16 09:09:13;;;;;;;5.32;1.13;;;;;;;;;;5020239;28;20044;-66
2023/10/16 09:11:39;;;;;;;6.27;1.23;;;;;;;;;;5012038;28;20033;-66
2023/10/16 09:14:09;;;;;;;5.10;1.10;;;;;;;;;;5020852;28;20516;-66
2023/10/16 09:16:35;;;;;;;4.85;1.08;;;;;;;;;;5020626;28;20757;-66
2023/10/16 09:19:06;;;;;;;6.55;0.95;;;;;;;;;;5020538;28;20657;-66
2023/10/16 09:21:38;;;;;;;9.20;1.38;;;;;;;;;;5020120;28;20049;-67
2023/10/16 09:24:05;;;;;;;8.57;1.13;;;;;;;;;;5020558;28;21059;-66
2023/10/16 09:26:38;;;;;;;5.47;1.38;;;;;;;;;;5002584;28;20056;-66
2023/10/16 09:32:02;;;;;;;4.38;1.38;;;;;;;;;;5002763;28;20045;-66
2023/10/16 09:34:28;;;;;;;8.55;1.88;;;;;;;;;;5024583;28;20135;-66
2023/10/16 09:37:15;;;;;;;8.93;1.52;;;;;;;;;;5023643;28;20044;-66
2023/10/16 09:39:46;;;;;;;4.70;1.10;;;;;;;;;;5023684;28;20040;-67
2023/10/16 09:42:12;;;;;;;4.10;0.90;;;;;;;;;;5024362;28;20032;-66
2023/10/16 09:44:45;;;;;;;4.88;0.90;;;;;;;;;;5023850;28;20155;-66
2023/10/16 09:47:27;;;;;;;6.28;1.27;;;;;;;;;;5024129;28;20025;-66
2023/10/16 09:49:55;;;;;;;3.78;0.88;;;;;;;;;;5024037;28;20772;-66
2023/10/16 09:52:21;;;;;;;2.60;0.70;;;;;;;;;;5023611;28;20029;-66
2023/10/16 09:54:51;;;;;;;4.97;0.95;;;;;;;;;;5023481;28;20044;-67
2023/10/16 09:57:27;;;;;;;5.93;1.25;;;;;;;;;;5024111;28;20077;-67
2023/10/16 09:59:54;;;;;;;8.32;1.10;;;;;;;;;;5023152;28;20120;-66
2023/10/16 10:02:25;;;;;;;2.65;0.60;;;;;;;;;;5023782;28;20021;-66
2023/10/16 10:05:08;;;;;;;3.97;0.70;;;;;;;;;;5023601;28;20435;-67
2023/10/16 10:07:47;;;;;;;3.83;1.02;;;;;;;;;;5023747;28;20038;-66
2023/10/16 10:12:57;;;;;;;1.75;0.68;;;;;;;;;;5023256;28;20131;-66
2023/10/16 10:15:30;;;;;;;3.03;0.73;;;;;;;;;;5023354;28;20037;-66
2023/10/16 10:18:02;;;;;;;2.80;0.85;;;;;;;;;;5023716;28;20033;-67
2023/10/16 10:20:40;;;;;;;3.75;0.77;;;;;;;;;;5022588;28;20046;-66
2023/10/16 10:23:08;;;;;;;5.97;0.90;;;;;;;;;;5023998;28;20036;-66
2023/10/16 10:25:41;;;;;;;3.72;0.60;;;;;;;;;;5023740;28;20048;-66
2023/10/16 10:28:17;;;;;;;6.50;1.00;;;;;;;;;;5022855;28;21727;-67
2023/10/16 10:30:45;;;;;;;11.43;1.23;;;;;;;;;;5023156;28;20071;-67
2023/10/16 10:33:31;;;;;;;6.53;1.10;;;;;;;;;;5022643;28;20037;-66
2023/10/16 10:36:18;;;;;;;5.30;0.75;;;;;;;;;;5020944;28;20076;-67
2023/10/16 10:38:46;;;;;;;6.30;0.90;;;;;;;;;;5022221;28;20033;-66
2023/10/16 10:41:13;;;;;;;3.75;1.05;;;;;;;;;;5022896;28;20174;-66
2023/10/16 10:43:49;;;;;;;11.07;1.48;;;;;;;;;;5022699;28;20036;-66
2023/10/16 10:46:28;;;;;;;7.13;1.00;;;;;;;;;;5022978;28;20025;-67
2023/10/16 10:48:56;;;;;;;5.10;0.80;;;;;;;;;;5022076;28;20057;-67
2023/10/16 10:51:22;;;;;;;7.13;1.38;;;;;;;;;;5021233;28;20033;-67
2023/10/16 10:53:59;;;;;;;3.63;1.05;;;;;;;;;;5022071;28;20044;-66
2023/10/16 10:56:39;;;;;;;6.65;1.40;;;;;;;;;;5021523;28;20077;-67
2023/10/16 10:59:11;;;;;;;5.82;0.95;;;;;;;;;;5021945;28;20033;-67
2023/10/16 11:01:52;;;;;;;4.60;0.70;;;;;;;;;;5022128;28;20033;-66
2023/10/16 11:04:18;;;;;;;7.40;1.05;;;;;;;;;;5013454;28;20026;-66
2023/10/16 11:06:52;;;;;;;9.88;1.67;;;;;;;;;;5022455;28;20603;-66
2023/10/16 11:09:26;;;;;;;5.45;0.98;;;;;;;;;;5007335;28;20088;-66
2023/10/16 11:11:54;;;;;;;6.95;1.38;;;;;;;;;;5021414;28;20163;-66
2023/10/16 11:14:36;;;;;;;5.20;1.00;;;;;;;;;;5021818;28;20843;-66
2023/10/16 11:17:06;;;;;;;5.47;0.85;;;;;;;;;;5022158;28;20049;-66
2023/10/16 11:19:47;;;;;;;3.70;0.88;;;;;;;;;;5021598;28;20047;-66
2023/10/16 11:22:17;;;;;;;7.68;1.65;;;;;;;;;;5021853;28;20120;-67
2023/10/16 11:24:43;;;;;;;5.35;1.00;;;;;;;;;;5022099;28;20598;-66
2023/10/16 11:27:09;;;;;;;5.75;1.27;;;;;;;;;;5021662;28;20040;-67
2023/10/16 11:29:36;;;;;;;8.00;1.38;;;;;;;;;;5021421;28;20047;-67
2023/10/16 11:32:06;;;;;;;8.48;1.83;;;;;;;;;;5022115;28;20075;-67
2023/10/16 11:34:46;;;;;;;5.47;1.88;;;;;;;;;;5021199;28;21329;-66
2023/10/16 11:37:15;;;;;;;5.65;1.70;;;;;;;;;;5021496;28;20067;-66
2023/10/16 11:39:45;;;;;;;6.85;1.60;;;;;;;;;;5021091;28;20060;-66
2023/10/16 11:42:13;;;;;;;6.05;1.40;;;;;;;;;;5021231;28;20605;-67
2023/10/16 11:44:40;;;;;;;6.68;1.27;;;;;;;;;;5021767;28;20033;-66
2023/10/16 11:47:16;;;;;;;6.85;1.00;;;;;;;;;;5021647;28;20032;-66
2023/10/16 11:49:53;;;;;;;6.10;1.20;;;;;;;;;;5020885;28;20042;-66
2023/10/16 11:52:19;;;;;;;6.40;1.27;;;;;;;;;;5021323;28;20660;-66
2023/10/16 11:54:52;;;;;;;4.57;1.15;;;;;;;;;;5021023;28;20048;-66
2023/10/16 11:57:18;;;;;;;5.93;1.08;;;;;;;;;;5022049;28;20029;-66
2023/10/16 11:59:44;;;;;;;5.68;1.10;;;;;;;;;;5021541;28;21820;-66
2023/10/16 12:02:11;;;;;;;5.55;1.20;;;;;;;;;;5020803;28;20037;-66
2023/10/16 12:04:40;;;;;;;4.30;1.23;;;;;;;;;;5021164;28;20037;-67
2023/10/16 12:07:07;;;;;;;4.43;0.85;;;;;;;;;;5021529;28;20108;-66
2023/10/16 12:09:38;;;;;;;4.97;1.13;;;;;;;;;;5021082;28;20075;-66
2023/10/16 12:12:06;;;;;;;5.88;1.52;;;;;;;;;;5021155;28;20759;-66
2023/10/16 12:14:37;;;;;;;5.40;1.33;;;;;;;;;;5021492;28;20040;-66
2023/10/16 12:17:06;;;;;;;4.00;0.80;;;;;;;;;;5020064;28;20036;-66
2023/10/16 12:19:32;;;;;;;6.07;1.42;;;;;;;;;;5020975;28;20075;-66
2023/10/16 12:22:00;;;;;;;4.53;1.10;;;;;;;;;;5020464;28;20810;-66
2023/10/16 12:24:26;;;;;;;14.80;5.47;;;;;;;;;;5021291;28;20243;-67
2023/10/16 12:26:52;;;;;;;21.25;9.82;;;;;;;;;;5021249;28;20030;-66
2023/10/16 12:29:19;;;;;;;13.65;6.88;;;;;;;;;;5021540;28;20469;-66
2023/10/16 12:31:45;;;;;;;7.50;2.58;;;;;;;;;;5020938;28;20036;-66
2023/10/16 12:34:12;;;;;;;12.40;6.60;;;;;;;;;;5021235;28;20036;-66
2023/10/16 12:36:38;;;;;;;7.85;2.30;;;;;;;;;;5021367;28;20037;-66
2023/10/16 12:39:13;;;;;;;6.30;1.38;;;;;;;;;;5021100;28;20037;-67
2023/10/16 12:41:41;;;;;;;7.05;1.38;;;;;;;;;;5012254;28;20667;-67
2023/10/16 12:44:09;;;;;;;7.43;1.38;;;;;;;;;;5020638;28;20091;-66
2023/10/16 12:46:36;;;;;;;5.25;1.35;;;;;;;;;;5020673;28;20025;-66
2023/10/16 12:49:07;;;;;;;7.72;1.40;;;;;;;;;;5020644;28;20382;-66
2023/10/16 12:51:34;;;;;;;5.38;0.98;;;;;;;;;;5021069;28;20060;-66
2023/10/16 12:54:03;;;;;;;13.00;2.17;;;;;;;;;;5020651;28;20578;-66
2023/10/16 12:56:29;;;;;;;4.00;0.98;;;;;;;;;;5002938;28;20206;-66
2023/10/16 12:58:57;;;;;;;11.80;1.60;;;;;;;;;;5020738;28;20090;-66
2023/10/16 13:01:23;;;;;;;7.90;1.15;;;;;;;;;;5020868;28;20173;-66
2023/10/16 13:03:50;;;;;;;5.57;1.15;;;;;;;;;;5024930;28;20040;-66
2023/10/16 13:06:16;;;;;;;6.55;1.35;;;;;;;;;;5024397;28;20120;-66
2023/10/16 13:08:42;;;;;;;5.18;0.93;;;;;;;;;;5025142;28;20048;-66
2023/10/16 13:11:08;;;;;;;8.05;1.48;;;;;;;;;;5023823;28;20044;-66
2023/10/16 13:13:35;;;;;;;8.07;1.08;;;;;;;;;;5024659;28;20056;-66
2023/10/16 13:16:04;;;;;;;6.85;1.20;;;;;;;;;;5024136;28;20037;-66
2023/10/16 13:18:30;;;;;;;6.93;1.00;;;;;;;;;;5024513;28;20072;-66
2023/10/16 13:23:53;;;;;;;9.40;1.55;;;;;;;;;;5006970;28;20041;-66
2023/10/16 13:26:20;;;;;;;9.63;1.38;;;;;;;;;;5024447;28;20033;-66
2023/10/16 13:28:46;;;;;;;3.75;1.15;;;;;;;;;;5024010;28;20031;-66
2023/10/16 13:31:12;;;;;;;5.97;1.35;;;;;;;;;;5024659;28;20043;-68
2023/10/16 13:33:41;;;;;;;7.50;1.30;;;;;;;;;;5024544;28;20033;-67
2023/10/16 13:36:11;;;;;;;3.30;0.60;;;;;;;;;;5024079;28;20056;-66
2023/10/16 13:38:37;;;;;;;7.18;1.10;;;;;;;;;;5022663;28;20033;-66
2023/10/16 13:41:17;;;;;;;6.97;0.90;;;;;;;;;;5024164;28;20026;-67
2023/10/16 13:43:43;;;;;;;5.43;1.17;;;;;;;;;;5023236;28;20128;-67
2023/10/16 13:46:12;;;;;;;7.97;1.20;;;;;;;;;;5023908;28;20040;-67
2023/10/16 13:48:45;;;;;;;6.47;1.08;;;;;;;;;;5024334;28;20087;-67
2023/10/16 13:51:18;;;;;;;4.20;0.73;;;;;;;;;;5023207;28;20029;-67
2023/10/16 13:53:48;;;;;;;1.75;0.68;;;;;;;;;;5023683;28;20046;-67
2023/10/16 13:56:17;;;;;;;5.10;1.08;;;;;;;;;;5023511;28;20079;-67
2023/10/16 13:58:45;;;;;;;3.40;0.60;;;;;;;;;;5023122;28;20872;-67
2023/10/16 14:01:12;;;;;;;9.73;1.60;;;;;;;;;;5023720;28;20030;-67
2023/10/16 14:03:38;;;;;;;5.00;1.02;;;;;;;;;;5023111;28;20040;-67
2023/10/16 14:06:12;;;;;;;4.55;1.00;;;;;;;;;;5023285;28;20045;-67
2023/10/16 14:08:41;;;;;;;8.88;1.25;;;;;;;;;;5023315;28;20038;-67
2023/10/16 14:11:11;;;;;;;7.43;1.02;;;;;;;;;;5022874;28;20026;-67
2023/10/16 14:13:40;;;;;;;5.20;0.90;;;;;;;;;;5022899;28;20036;-67
2023/10/16 14:16:10;;;;;;;7.28;1.10;;;;;;;;;;5022614;28;20143;-67
2023/10/16 14:18:38;;;;;;;8.13;1.20;;;;;;;;;;5022221;28;20025;-67
2023/10/16 14:21:08;;;;;;;4.65;0.93;;;;;;;;;;5003781;28;20049;-67
2023/10/16 14:23:35;;;;;;;8.15;0.95;;;;;;;;;;5022631;28;20025;-66
2023/10/16 14:26:01;;;;;;;5.88;1.10;;;;;;;;;;5021514;28;20052;-67
2023/10/16 14:28:40;;;;;;;9.05;3.13;;;;;;;;;;5007605;28;20076;-67
2023/10/16 14:31:09;;;;;;;3.60;1.45;;;;;;;;;;5021801;28;20029;-67
2023/10/16 14:33:36;;;;;;;9.35;2.63;;;;;;;;;;5022040;28;20018;-66
2023/10/16 14:36:06;;;;;;;9.02;1.98;;;;;;;;;;5022872;28;20563;-67
2023/10/16 14:38:32;;;;;;;11.25;3.25;;;;;;;;;;5022583;28;20079;-67
2023/10/16 14:41:15;;;;;;;9.48;2.60;;;;;;;;;;5021960;28;20659;-67
2023/10/16 14:43:45;;;;;;;7.25;3.28;;;;;;;;;;5022521;28;20037;-67
2023/10/16 14:46:11;;;;;;;18.42;10.63;;;;;;;;;;5022459;28;20083;-67
2023/10/16 14:48:44;;;;;;;13.38;5.40;;;;;;;;;;5022155;28;20032;-67
2023/10/16 14:51:15;;;;;;;9.75;3.92;;;;;;;;;;5022891;28;20110;-67
2023/10/16 14:53:45;;;;;;;8.65;2.50;;;;;;;;;;5022391;28;20048;-67
2023/10/16 14:56:16;;;;;;;7.13;2.22;;;;;;;;;;5021967;28;20037;-67
2023/10/16 14:58:42;;;;;;;6.78;1.67;;;;;;;;;;5022176;28;20103;-67
2023/10/16 15:01:17;;;;;;;4.60;1.20;;;;;;;;;;5022871;28;20116;-67
2023/10/16 15:03:44;;;;;;;6.63;1.40;;;;;;;;;;5022036;28;21720;-67
2023/10/16 15:06:12;;;;;;;4.60;1.38;;;;;;;;;;5022048;28;20029;-67
2023/10/16 15:08:39;;;;;;;6.25;1.17;;;;;;;;;;5022194;28;20111;-67
2023/10/16 15:11:05;;;;;;;6.93;1.40;;;;;;;;;;5021903;28;20037;-67
2023/10/16 15:13:31;;;;;;;3.70;1.02;;;;;;;;;;5022017;28;20032;-67
2023/10/16 15:15:57;;;;;;;8.93;1.25;;;;;;;;;;5021690;28;20034;-67
2023/10/16 15:18:23;;;;;;;4.68;1.15;;;;;;;;;;5022043;28;20023;-67
2023/10/16 15:20:50;;;;;;;8.77;3.22;;;;;;;;;;5021451;28;20065;-67
2023/10/16 15:23:16;;;;;;;8.02;2.90;;;;;;;;;;5021619;28;20037;-67
2023/10/16 15:25:43;;;;;;;10.25;2.50;;;;;;;;;;5020737;28;20630;-67
2023/10/16 15:28:09;;;;;;;12.20;2.50;;;;;;;;;;5021147;28;20061;-67
2023/10/16 15:30:35;;;;;;;8.57;2.45;;;;;;;;;;5020352;28;20033;-67
2023/10/16 15:33:02;;;;;;;9.55;1.95;;;;;;;;;;5020039;28;20441;-67
2023/10/16 15:35:29;;;;;;;8.93;1.38;;;;;;;;;;5021124;28;20049;-67
2023/10/16 15:37:56;;;;;;;5.80;1.33;;;;;;;;;;5020646;28;20034;-67
2023/10/16 15:40:23;;;;;;;3.95;1.05;;;;;;;;;;5020927;28;20053;-67
2023/10/16 15:42:52;;;;;;;5.35;1.10;;;;;;;;;;5021920;28;20099;-67
2023/10/16 15:45:19;;;;;;;6.57;1.45;;;;;;;;;;5002256;28;20029;-67
2023/10/16 15:47:51;;;;;;;4.28;1.00;;;;;;;;;;5026276;28;20517;-66
2023/10/16 15:50:17;;;;;;;3.00;0.80;;;;;;;;;;5025946;28;21876;-67
2023/10/16 15:52:43;;;;;;;6.15;0.77;;;;;;;;;;5025935;28;20037;-66
2023/10/16 15:55:10;;;;;;;7.70;0.85;;;;;;;;;;5025912;28;20472;-67
2023/10/16 15:57:36;;;;;;;6.30;0.98;;;;;;;;;;5025749;28;20110;-66
2023/10/16 16:00:06;;;;;;;6.05;1.45;;;;;;;;;;5024047;28;20026;-67
2023/10/16 16:02:37;;;;;;;6.10;0.90;;;;;;;;;;5023643;28;20645;-67
2023/10/16 16:05:04;;;;;;;3.20;0.82;;;;;;;;;;5025415;28;20560;-66
2023/10/16 16:07:30;;;;;;;5.35;1.55;;;;;;;;;;5025149;28;20052;-67
2023/10/16 16:09:59;;;;;;;7.05;1.40;;;;;;;;;;5024566;28;20119;-66
2023/10/16 16:12:25;;;;;;;6.78;1.77;;;;;;;;;;5024816;28;20117;-67
2023/10/16 16:14:51;;;;;;;8.90;2.78;;;;;;;;;;5025108;28;20095;-66
2023/10/16 16:17:18;;;;;;;6.80;2.60;;;;;;;;;;5025163;28;20041;-66
2023/10/16 16:19:44;;;;;;;8.55;3.05;;;;;;;;;;5023931;28;20045;-66
2023/10/16 16:22:11;;;;;;;8.63;2.90;;;;;;;;;;5025429;28;20057;-66
2023/10/16 16:24:40;;;;;;;11.45;3.65;;;;;;;;;;5040916;28;20029;-66
2023/10/16 16:27:09;;;;;;;6.63;2.40;;;;;;;;;;5024280;28;20045;-67
2023/10/16 16:29:40;;;;;;;7.30;2.20;;;;;;;;;;5025191;28;20063;-66
2023/10/16 16:32:07;;;;;;;9.25;2.15;;;;;;;;;;5025192;28;20029;-66
2023/10/16 16:34:33;;;;;;;9.57;2.20;;;;;;;;;;5025761;28;20472;-66
2023/10/16 16:37:00;;;;;;;7.03;1.63;;;;;;;;;;5025185;28;20099;-66
2023/10/16 16:39:32;;;;;;;4.10;1.50;;;;;;;;;;5025219;28;21739;-66
2023/10/16 16:42:01;;;;;;;8.10;1.50;;;;;;;;;;5025400;28;20032;-66
2023/10/16 16:44:28;;;;;;;7.13;1.77;;;;;;;;;;5021818;28;20028;-66
2023/10/16 16:46:55;;;;;;;6.15;1.70;;;;;;;;;;5023436;28;20046;-66
2023/10/16 16:49:22;;;;;;;6.78;2.08;;;;;;;;;;5024477;28;20449;-66